sensor_id;sensor_type;location;lat;lon;timestamp;P1;durP1;ratioP1;P2;durP2;ratioP2
41946;SDS011;27638;42.184;24.848;2023-09-12T00:00:33;2.97;;;2.00;;
41946;SDS011;27638;42.184;24.848;2023-09-12T00:02:59;1.67;;;1.58;;
41946;SDS011;27638;42.184;24.848;2023-09-12T00:05:24;7.78;;;1.98;;
41946;SDS011;27638;42.184;24.848;2023-09-12T00:07:51;3.40;;;1.95;;
41946;SDS011;27638;42.184;24.848;2023-09-12T00:10:18;2.22;;;1.70;;
41946;SDS011;27638;42.184;24.848;2023-09-12T00:12:43;3.15;;;1.80;;
41946;SDS011;27638;42.184;24.848;2023-09-12T00:15:09;1.92;;;1.60;;
41946;SDS011;27638;42.184;24.848;2023-09-12T00:17:34;2.90;;;2.05;;
41946;SDS011;27638;42.184;24.848;2023-09-12T00:19:59;2.90;;;2.00;;
41946;SDS011;27638;42.184;24.848;2023-09-12T00:22:25;1.77;;;1.48;;
41946;SDS011;27638;42.184;24.848;2023-09-12T00:24:50;3.78;;;1.90;;
41946;SDS011;27638;42.184;24.848;2023-09-12T00:27:16;4.38;;;1.63;;
41946;SDS011;27638;42.184;24.848;2023-09-12T00:29:41;2.33;;;1.50;;
41946;SDS011;27638;42.184;24.848;2023-09-12T00:32:07;3.10;;;1.50;;
41946;SDS011;27638;42.184;24.848;2023-09-12T00:34:32;4.82;;;1.67;;
41946;SDS011;27638;42.184;24.848;2023-09-12T00:36:57;1.45;;;1.35;;
41946;SDS011;27638;42.184;24.848;2023-09-12T00:39:23;2.95;;;1.42;;
41946;SDS011;27638;42.184;24.848;2023-09-12T00:41:48;2.92;;;1.60;;
41946;SDS011;27638;42.184;24.848;2023-09-12T00:44:14;3.05;;;1.90;;
41946;SDS011;27638;42.184;24.848;2023-09-12T00:46:39;3.63;;;1.80;;
41946;SDS011;27638;42.184;24.848;2023-09-12T00:49:05;3.75;;;1.63;;
41946;SDS011;27638;42.184;24.848;2023-09-12T00:51:33;2.63;;;1.83;;
41946;SDS011;27638;42.184;24.848;2023-09-12T00:54:00;4.50;;;2.20;;
41946;SDS011;27638;42.184;24.848;2023-09-12T00:56:26;4.05;;;2.03;;
41946;SDS011;27638;42.184;24.848;2023-09-12T00:58:52;2.90;;;1.70;;
41946;SDS011;27638;42.184;24.848;2023-09-12T01:01:18;4.35;;;1.75;;
41946;SDS011;27638;42.184;24.848;2023-09-12T01:03:44;3.80;;;1.80;;
41946;SDS011;27638;42.184;24.848;2023-09-12T01:06:10;4.75;;;2.40;;
41946;SDS011;27638;42.184;24.848;2023-09-12T01:08:35;3.42;;;2.10;;
41946;SDS011;27638;42.184;24.848;2023-09-12T01:11:04;2.40;;;2.08;;
41946;SDS011;27638;42.184;24.848;2023-09-12T01:13:30;3.97;;;2.35;;
41946;SDS011;27638;42.184;24.848;2023-09-12T01:15:55;6.15;;;2.00;;
41946;SDS011;27638;42.184;24.848;2023-09-12T01:18:21;4.22;;;2.13;;
41946;SDS011;27638;42.184;24.848;2023-09-12T01:21:12;2.10;;;1.90;;
41946;SDS011;27638;42.184;24.848;2023-09-12T01:26:29;4.10;;;1.80;;
41946;SDS011;27638;42.184;24.848;2023-09-12T01:29:01;2.47;;;2.00;;
41946;SDS011;27638;42.184;24.848;2023-09-12T01:31:30;3.35;;;2.08;;
41946;SDS011;27638;42.184;24.848;2023-09-12T01:33:56;2.85;;;1.90;;
41946;SDS011;27638;42.184;24.848;2023-09-12T01:36:22;4.25;;;2.42;;
41946;SDS011;27638;42.184;24.848;2023-09-12T01:38:48;4.63;;;2.47;;
41946;SDS011;27638;42.184;24.848;2023-09-12T01:41:13;3.63;;;1.83;;
41946;SDS011;27638;42.184;24.848;2023-09-12T01:43:39;3.83;;;2.10;;
41946;SDS011;27638;42.184;24.848;2023-09-12T01:46:06;3.28;;;2.15;;
41946;SDS011;27638;42.184;24.848;2023-09-12T01:48:33;2.55;;;1.80;;
41946;SDS011;27638;42.184;24.848;2023-09-12T01:51:01;2.85;;;2.03;;
41946;SDS011;27638;42.184;24.848;2023-09-12T01:53:27;2.80;;;1.70;;
41946;SDS011;27638;42.184;24.848;2023-09-12T01:55:54;5.10;;;2.20;;
41946;SDS011;27638;42.184;24.848;2023-09-12T01:58:22;4.07;;;1.90;;
41946;SDS011;27638;42.184;24.848;2023-09-12T02:00:49;2.95;;;1.90;;
41946;SDS011;27638;42.184;24.848;2023-09-12T02:03:15;2.95;;;2.13;;
41946;SDS011;27638;42.184;24.848;2023-09-12T02:05:40;6.55;;;2.47;;
41946;SDS011;27638;42.184;24.848;2023-09-12T02:08:06;3.38;;;1.98;;
41946;SDS011;27638;42.184;24.848;2023-09-12T02:10:31;3.45;;;2.15;;
41946;SDS011;27638;42.184;24.848;2023-09-12T02:12:57;4.18;;;2.05;;
41946;SDS011;27638;42.184;24.848;2023-09-12T02:15:22;3.67;;;1.98;;
41946;SDS011;27638;42.184;24.848;2023-09-12T02:17:48;2.72;;;1.83;;
41946;SDS011;27638;42.184;24.848;2023-09-12T02:20:15;4.90;;;2.10;;
41946;SDS011;27638;42.184;24.848;2023-09-12T02:22:41;3.78;;;1.85;;
41946;SDS011;27638;42.184;24.848;2023-09-12T02:25:07;2.55;;;2.00;;
41946;SDS011;27638;42.184;24.848;2023-09-12T02:27:33;1.95;;;1.70;;
41946;SDS011;27638;42.184;24.848;2023-09-12T02:29:58;2.45;;;1.70;;
41946;SDS011;27638;42.184;24.848;2023-09-12T02:32:24;2.50;;;1.90;;
41946;SDS011;27638;42.184;24.848;2023-09-12T02:34:49;3.55;;;1.73;;
41946;SDS011;27638;42.184;24.848;2023-09-12T02:37:15;4.97;;;2.17;;
41946;SDS011;27638;42.184;24.848;2023-09-12T02:39:41;3.55;;;2.08;;
41946;SDS011;27638;42.184;24.848;2023-09-12T02:42:06;4.28;;;1.95;;
41946;SDS011;27638;42.184;24.848;2023-09-12T02:44:32;5.60;;;2.05;;
41946;SDS011;27638;42.184;24.848;2023-09-12T02:46:57;6.75;;;1.98;;
41946;SDS011;27638;42.184;24.848;2023-09-12T02:49:22;6.85;;;2.40;;
41946;SDS011;27638;42.184;24.848;2023-09-12T02:51:48;4.38;;;2.08;;
41946;SDS011;27638;42.184;24.848;2023-09-12T02:54:13;3.03;;;2.22;;
41946;SDS011;27638;42.184;24.848;2023-09-12T02:56:38;5.38;;;2.05;;
41946;SDS011;27638;42.184;24.848;2023-09-12T02:59:04;5.15;;;2.30;;
41946;SDS011;27638;42.184;24.848;2023-09-12T03:01:30;4.95;;;1.92;;
41946;SDS011;27638;42.184;24.848;2023-09-12T03:03:55;5.72;;;2.13;;
41946;SDS011;27638;42.184;24.848;2023-09-12T03:06:23;5.30;;;2.40;;
41946;SDS011;27638;42.184;24.848;2023-09-12T03:08:48;4.57;;;2.72;;
41946;SDS011;27638;42.184;24.848;2023-09-12T03:11:14;7.38;;;2.30;;
41946;SDS011;27638;42.184;24.848;2023-09-12T03:13:40;3.67;;;2.50;;
41946;SDS011;27638;42.184;24.848;2023-09-12T03:16:12;2.25;;;1.98;;
41946;SDS011;27638;42.184;24.848;2023-09-12T03:18:39;5.43;;;2.17;;
41946;SDS011;27638;42.184;24.848;2023-09-12T03:21:05;3.47;;;1.92;;
41946;SDS011;27638;42.184;24.848;2023-09-12T03:23:30;3.92;;;1.90;;
41946;SDS011;27638;42.184;24.848;2023-09-12T03:26:06;3.70;;;2.15;;
41946;SDS011;27638;42.184;24.848;2023-09-12T03:28:32;3.17;;;2.20;;
41946;SDS011;27638;42.184;24.848;2023-09-12T03:31:05;4.07;;;2.17;;
41946;SDS011;27638;42.184;24.848;2023-09-12T03:33:32;3.90;;;2.13;;
41946;SDS011;27638;42.184;24.848;2023-09-12T03:35:58;7.80;;;2.55;;
41946;SDS011;27638;42.184;24.848;2023-09-12T03:38:23;10.75;;;3.28;;
41946;SDS011;27638;42.184;24.848;2023-09-12T03:40:48;14.50;;;3.83;;
41946;SDS011;27638;42.184;24.848;2023-09-12T03:43:14;9.68;;;3.97;;
41946;SDS011;27638;42.184;24.848;2023-09-12T03:45:39;10.57;;;4.25;;
41946;SDS011;27638;42.184;24.848;2023-09-12T03:48:05;11.85;;;5.00;;
41946;SDS011;27638;42.184;24.848;2023-09-12T03:50:30;10.63;;;4.30;;
41946;SDS011;27638;42.184;24.848;2023-09-12T03:52:56;13.73;;;5.30;;
41946;SDS011;27638;42.184;24.848;2023-09-12T03:55:21;15.23;;;5.10;;
41946;SDS011;27638;42.184;24.848;2023-09-12T03:57:47;8.60;;;4.90;;
41946;SDS011;27638;42.184;24.848;2023-09-12T04:00:12;11.50;;;5.57;;
41946;SDS011;27638;42.184;24.848;2023-09-12T04:02:38;14.00;;;4.75;;
41946;SDS011;27638;42.184;24.848;2023-09-12T04:05:04;12.40;;;4.55;;
41946;SDS011;27638;42.184;24.848;2023-09-12T04:07:29;9.27;;;4.88;;
41946;SDS011;27638;42.184;24.848;2023-09-12T04:09:55;12.13;;;6.13;;
41946;SDS011;27638;42.184;24.848;2023-09-12T04:12:20;9.05;;;4.82;;
41946;SDS011;27638;42.184;24.848;2023-09-12T04:14:45;9.48;;;4.15;;
41946;SDS011;27638;42.184;24.848;2023-09-12T04:17:11;6.63;;;4.25;;
41946;SDS011;27638;42.184;24.848;2023-09-12T04:19:37;10.90;;;4.32;;
41946;SDS011;27638;42.184;24.848;2023-09-12T04:22:02;8.13;;;4.45;;
41946;SDS011;27638;42.184;24.848;2023-09-12T04:24:29;10.90;;;4.68;;
41946;SDS011;27638;42.184;24.848;2023-09-12T04:26:55;11.15;;;5.18;;
41946;SDS011;27638;42.184;24.848;2023-09-12T04:29:20;16.30;;;5.45;;
41946;SDS011;27638;42.184;24.848;2023-09-12T04:31:45;17.25;;;6.03;;
41946;SDS011;27638;42.184;24.848;2023-09-12T04:34:11;12.10;;;4.88;;
41946;SDS011;27638;42.184;24.848;2023-09-12T04:36:36;12.07;;;5.13;;
41946;SDS011;27638;42.184;24.848;2023-09-12T04:39:01;13.57;;;5.03;;
41946;SDS011;27638;42.184;24.848;2023-09-12T04:41:27;7.00;;;4.03;;
41946;SDS011;27638;42.184;24.848;2023-09-12T04:43:52;10.50;;;4.60;;
41946;SDS011;27638;42.184;24.848;2023-09-12T04:46:18;9.13;;;4.38;;
41946;SDS011;27638;42.184;24.848;2023-09-12T04:48:43;4.75;;;3.47;;
41946;SDS011;27638;42.184;24.848;2023-09-12T04:51:08;8.43;;;3.53;;
41946;SDS011;27638;42.184;24.848;2023-09-12T04:53:34;6.88;;;4.22;;
41946;SDS011;27638;42.184;24.848;2023-09-12T04:56:03;8.77;;;3.42;;
41946;SDS011;27638;42.184;24.848;2023-09-12T04:58:29;6.15;;;2.95;;
41946;SDS011;27638;42.184;24.848;2023-09-12T05:00:55;9.65;;;3.25;;
41946;SDS011;27638;42.184;24.848;2023-09-12T05:03:21;5.28;;;2.90;;
41946;SDS011;27638;42.184;24.848;2023-09-12T05:05:47;10.23;;;3.50;;
41946;SDS011;27638;42.184;24.848;2023-09-12T05:08:13;6.78;;;5.15;;
41946;SDS011;27638;42.184;24.848;2023-09-12T05:10:38;5.63;;;3.55;;
41946;SDS011;27638;42.184;24.848;2023-09-12T05:13:04;8.93;;;3.67;;
41946;SDS011;27638;42.184;24.848;2023-09-12T05:15:30;10.13;;;7.47;;
41946;SDS011;27638;42.184;24.848;2023-09-12T05:17:55;8.43;;;3.50;;
41946;SDS011;27638;42.184;24.848;2023-09-12T05:20:21;6.45;;;2.97;;
41946;SDS011;27638;42.184;24.848;2023-09-12T05:22:46;4.53;;;2.85;;
41946;SDS011;27638;42.184;24.848;2023-09-12T05:25:12;4.68;;;3.00;;
41946;SDS011;27638;42.184;24.848;2023-09-12T05:27:37;9.13;;;6.85;;
41946;SDS011;27638;42.184;24.848;2023-09-12T05:30:03;9.65;;;3.42;;
41946;SDS011;27638;42.184;24.848;2023-09-12T05:32:29;4.60;;;2.85;;
41946;SDS011;27638;42.184;24.848;2023-09-12T05:34:54;3.50;;;2.70;;
41946;SDS011;27638;42.184;24.848;2023-09-12T05:37:19;3.55;;;3.25;;
41946;SDS011;27638;42.184;24.848;2023-09-12T05:39:46;5.32;;;3.38;;
41946;SDS011;27638;42.184;24.848;2023-09-12T05:42:11;5.30;;;3.80;;
41946;SDS011;27638;42.184;24.848;2023-09-12T05:44:37;5.25;;;3.63;;
41946;SDS011;27638;42.184;24.848;2023-09-12T05:47:02;4.80;;;3.25;;
41946;SDS011;27638;42.184;24.848;2023-09-12T05:49:28;7.60;;;4.35;;
41946;SDS011;27638;42.184;24.848;2023-09-12T05:51:54;6.50;;;4.43;;
41946;SDS011;27638;42.184;24.848;2023-09-12T05:54:19;9.43;;;3.85;;
41946;SDS011;27638;42.184;24.848;2023-09-12T05:56:44;5.75;;;4.25;;
41946;SDS011;27638;42.184;24.848;2023-09-12T05:59:10;5.65;;;3.78;;
41946;SDS011;27638;42.184;24.848;2023-09-12T06:01:35;10.48;;;5.38;;
41946;SDS011;27638;42.184;24.848;2023-09-12T06:04:01;12.50;;;4.32;;
41946;SDS011;27638;42.184;24.848;2023-09-12T06:06:27;7.90;;;4.57;;
41946;SDS011;27638;42.184;24.848;2023-09-12T06:08:53;6.32;;;4.07;;
41946;SDS011;27638;42.184;24.848;2023-09-12T06:11:18;6.93;;;4.05;;
41946;SDS011;27638;42.184;24.848;2023-09-12T06:13:44;6.78;;;3.90;;
41946;SDS011;27638;42.184;24.848;2023-09-12T06:16:09;5.47;;;3.50;;
41946;SDS011;27638;42.184;24.848;2023-09-12T06:18:35;5.07;;;3.20;;
41946;SDS011;27638;42.184;24.848;2023-09-12T06:21:00;7.00;;;3.50;;
41946;SDS011;27638;42.184;24.848;2023-09-12T06:23:31;7.35;;;3.83;;
41946;SDS011;27638;42.184;24.848;2023-09-12T06:25:56;5.10;;;3.53;;
41946;SDS011;27638;42.184;24.848;2023-09-12T06:28:28;5.53;;;3.45;;
41946;SDS011;27638;42.184;24.848;2023-09-12T06:30:55;7.95;;;3.90;;
41946;SDS011;27638;42.184;24.848;2023-09-12T06:33:22;7.05;;;3.45;;
41946;SDS011;27638;42.184;24.848;2023-09-12T06:35:48;5.38;;;3.30;;
41946;SDS011;27638;42.184;24.848;2023-09-12T06:38:15;8.10;;;3.63;;
41946;SDS011;27638;42.184;24.848;2023-09-12T06:40:42;15.18;;;7.82;;
41946;SDS011;27638;42.184;24.848;2023-09-12T06:43:07;5.38;;;3.75;;
41946;SDS011;27638;42.184;24.848;2023-09-12T06:45:33;5.40;;;2.78;;
41946;SDS011;27638;42.184;24.848;2023-09-12T06:48:01;5.30;;;2.85;;
41946;SDS011;27638;42.184;24.848;2023-09-12T06:50:27;3.35;;;2.70;;
41946;SDS011;27638;42.184;24.848;2023-09-12T06:52:52;4.25;;;2.22;;
41946;SDS011;27638;42.184;24.848;2023-09-12T06:55:18;4.20;;;2.60;;
41946;SDS011;27638;42.184;24.848;2023-09-12T06:57:43;3.85;;;2.20;;
41946;SDS011;27638;42.184;24.848;2023-09-12T07:00:10;4.78;;;1.90;;
41946;SDS011;27638;42.184;24.848;2023-09-12T07:02:36;3.08;;;2.10;;
41946;SDS011;27638;42.184;24.848;2023-09-12T07:05:01;5.05;;;2.05;;
41946;SDS011;27638;42.184;24.848;2023-09-12T07:07:28;4.18;;;2.08;;
41946;SDS011;27638;42.184;24.848;2023-09-12T07:09:54;8.70;;;2.53;;
41946;SDS011;27638;42.184;24.848;2023-09-12T07:12:19;4.82;;;2.47;;
41946;SDS011;27638;42.184;24.848;2023-09-12T07:14:45;3.40;;;2.90;;
41946;SDS011;27638;42.184;24.848;2023-09-12T07:17:10;4.32;;;2.20;;
41946;SDS011;27638;42.184;24.848;2023-09-12T07:19:36;6.70;;;2.45;;
41946;SDS011;27638;42.184;24.848;2023-09-12T07:22:01;3.08;;;2.38;;
41946;SDS011;27638;42.184;24.848;2023-09-12T07:24:27;4.20;;;2.08;;
41946;SDS011;27638;42.184;24.848;2023-09-12T07:26:52;3.58;;;2.15;;
41946;SDS011;27638;42.184;24.848;2023-09-12T07:29:18;5.40;;;2.88;;
41946;SDS011;27638;42.184;24.848;2023-09-12T07:31:44;3.47;;;2.08;;
41946;SDS011;27638;42.184;24.848;2023-09-12T07:34:09;4.85;;;2.20;;
41946;SDS011;27638;42.184;24.848;2023-09-12T07:36:37;3.78;;;2.00;;
41946;SDS011;27638;42.184;24.848;2023-09-12T07:39:02;2.47;;;2.28;;
41946;SDS011;27638;42.184;24.848;2023-09-12T07:41:29;4.38;;;1.80;;
41946;SDS011;27638;42.184;24.848;2023-09-12T07:43:55;3.80;;;2.30;;
41946;SDS011;27638;42.184;24.848;2023-09-12T07:46:20;5.15;;;3.22;;
41946;SDS011;27638;42.184;24.848;2023-09-12T07:48:46;6.38;;;5.78;;
41946;SDS011;27638;42.184;24.848;2023-09-12T07:51:12;2.53;;;2.33;;
41946;SDS011;27638;42.184;24.848;2023-09-12T07:53:39;3.67;;;1.95;;
41946;SDS011;27638;42.184;24.848;2023-09-12T07:56:04;5.50;;;3.25;;
41946;SDS011;27638;42.184;24.848;2023-09-12T07:58:30;3.30;;;2.45;;
41946;SDS011;27638;42.184;24.848;2023-09-12T08:00:55;5.60;;;2.20;;
41946;SDS011;27638;42.184;24.848;2023-09-12T08:03:21;4.55;;;2.70;;
41946;SDS011;27638;42.184;24.848;2023-09-12T08:05:56;3.60;;;3.38;;
41946;SDS011;27638;42.184;24.848;2023-09-12T08:08:22;2.92;;;2.60;;
41946;SDS011;27638;42.184;24.848;2023-09-12T08:10:49;2.83;;;2.25;;
41946;SDS011;27638;42.184;24.848;2023-09-12T08:13:15;2.92;;;2.70;;
41946;SDS011;27638;42.184;24.848;2023-09-12T08:15:40;5.03;;;4.28;;
41946;SDS011;27638;42.184;24.848;2023-09-12T08:18:06;5.25;;;2.70;;
41946;SDS011;27638;42.184;24.848;2023-09-12T08:20:31;4.95;;;3.30;;
41946;SDS011;27638;42.184;24.848;2023-09-12T08:22:56;4.80;;;1.85;;
41946;SDS011;27638;42.184;24.848;2023-09-12T08:25:22;5.20;;;2.10;;
41946;SDS011;27638;42.184;24.848;2023-09-12T08:27:48;4.57;;;2.95;;
41946;SDS011;27638;42.184;24.848;2023-09-12T08:30:13;4.13;;;2.55;;
41946;SDS011;27638;42.184;24.848;2023-09-12T08:32:40;3.00;;;2.17;;
41946;SDS011;27638;42.184;24.848;2023-09-12T08:35:09;7.93;;;2.15;;
41946;SDS011;27638;42.184;24.848;2023-09-12T08:37:38;3.15;;;2.55;;
41946;SDS011;27638;42.184;24.848;2023-09-12T08:40:05;2.60;;;2.20;;
41946;SDS011;27638;42.184;24.848;2023-09-12T08:42:35;5.65;;;2.10;;
41946;SDS011;27638;42.184;24.848;2023-09-12T08:45:06;3.65;;;2.10;;
41946;SDS011;27638;42.184;24.848;2023-09-12T08:47:42;4.07;;;1.90;;
41946;SDS011;27638;42.184;24.848;2023-09-12T08:50:12;10.43;;;2.25;;
41946;SDS011;27638;42.184;24.848;2023-09-12T08:52:42;5.93;;;1.92;;
41946;SDS011;27638;42.184;24.848;2023-09-12T08:55:09;2.95;;;1.70;;
41946;SDS011;27638;42.184;24.848;2023-09-12T08:57:36;2.92;;;1.67;;
41946;SDS011;27638;42.184;24.848;2023-09-12T09:00:04;3.05;;;1.70;;
41946;SDS011;27638;42.184;24.848;2023-09-12T09:02:34;4.20;;;1.73;;
41946;SDS011;27638;42.184;24.848;2023-09-12T09:05:01;3.85;;;3.50;;
41946;SDS011;27638;42.184;24.848;2023-09-12T09:07:37;4.53;;;2.03;;
41946;SDS011;27638;42.184;24.848;2023-09-12T09:10:05;5.53;;;2.33;;
41946;SDS011;27638;42.184;24.848;2023-09-12T09:12:32;2.50;;;1.67;;
41946;SDS011;27638;42.184;24.848;2023-09-12T09:14:58;2.55;;;1.75;;
41946;SDS011;27638;42.184;24.848;2023-09-12T09:17:25;4.40;;;1.88;;
41946;SDS011;27638;42.184;24.848;2023-09-12T09:19:51;3.38;;;2.13;;
41946;SDS011;27638;42.184;24.848;2023-09-12T09:22:17;3.60;;;2.10;;
41946;SDS011;27638;42.184;24.848;2023-09-12T09:24:42;4.30;;;2.35;;
41946;SDS011;27638;42.184;24.848;2023-09-12T09:27:08;4.10;;;2.15;;
41946;SDS011;27638;42.184;24.848;2023-09-12T09:29:45;2.58;;;1.88;;
41946;SDS011;27638;42.184;24.848;2023-09-12T09:32:16;6.03;;;2.10;;
41946;SDS011;27638;42.184;24.848;2023-09-12T09:34:44;2.72;;;2.20;;
41946;SDS011;27638;42.184;24.848;2023-09-12T09:37:09;4.97;;;1.90;;
41946;SDS011;27638;42.184;24.848;2023-09-12T09:39:35;2.45;;;1.60;;
41946;SDS011;27638;42.184;24.848;2023-09-12T09:42:01;4.53;;;1.98;;
41946;SDS011;27638;42.184;24.848;2023-09-12T09:44:26;2.67;;;1.50;;
41946;SDS011;27638;42.184;24.848;2023-09-12T09:47:02;2.92;;;1.58;;
41946;SDS011;27638;42.184;24.848;2023-09-12T09:49:28;2.92;;;1.30;;
41946;SDS011;27638;42.184;24.848;2023-09-12T09:51:56;1.50;;;1.40;;
41946;SDS011;27638;42.184;24.848;2023-09-12T09:54:24;4.60;;;1.60;;
41946;SDS011;27638;42.184;24.848;2023-09-12T09:56:54;3.63;;;2.00;;
41946;SDS011;27638;42.184;24.848;2023-09-12T09:59:21;2.70;;;1.92;;
41946;SDS011;27638;42.184;24.848;2023-09-12T10:01:49;3.17;;;1.50;;
41946;SDS011;27638;42.184;24.848;2023-09-12T10:04:18;2.05;;;1.77;;
41946;SDS011;27638;42.184;24.848;2023-09-12T10:06:45;2.50;;;2.30;;
41946;SDS011;27638;42.184;24.848;2023-09-12T10:09:15;2.83;;;1.80;;
41946;SDS011;27638;42.184;24.848;2023-09-12T10:11:43;3.70;;;1.75;;
41946;SDS011;27638;42.184;24.848;2023-09-12T10:14:11;3.47;;;1.98;;
41946;SDS011;27638;42.184;24.848;2023-09-12T10:17:10;5.60;;;1.90;;
41946;SDS011;27638;42.184;24.848;2023-09-12T10:19:35;3.03;;;2.00;;
41946;SDS011;27638;42.184;24.848;2023-09-12T10:22:06;2.42;;;1.70;;
41946;SDS011;27638;42.184;24.848;2023-09-12T10:24:35;3.20;;;1.95;;
41946;SDS011;27638;42.184;24.848;2023-09-12T10:27:02;6.38;;;2.20;;
41946;SDS011;27638;42.184;24.848;2023-09-12T10:29:30;3.40;;;2.17;;
41946;SDS011;27638;42.184;24.848;2023-09-12T10:31:56;2.50;;;2.20;;
41946;SDS011;27638;42.184;24.848;2023-09-12T10:34:22;7.95;;;2.20;;
41946;SDS011;27638;42.184;24.848;2023-09-12T10:36:50;3.22;;;1.90;;
41946;SDS011;27638;42.184;24.848;2023-09-12T10:39:16;7.45;;;2.22;;
41946;SDS011;27638;42.184;24.848;2023-09-12T10:41:45;4.25;;;3.08;;
41946;SDS011;27638;42.184;24.848;2023-09-12T10:44:14;4.13;;;1.98;;
41946;SDS011;27638;42.184;24.848;2023-09-12T10:46:41;5.00;;;2.38;;
41946;SDS011;27638;42.184;24.848;2023-09-12T10:49:08;2.70;;;2.20;;
41946;SDS011;27638;42.184;24.848;2023-09-12T10:51:41;3.50;;;2.13;;
41946;SDS011;27638;42.184;24.848;2023-09-12T10:54:08;2.60;;;2.08;;
41946;SDS011;27638;42.184;24.848;2023-09-12T10:56:37;4.80;;;2.17;;
41946;SDS011;27638;42.184;24.848;2023-09-12T11:01:46;3.40;;;2.10;;
41946;SDS011;27638;42.184;24.848;2023-09-12T11:06:48;3.15;;;2.20;;
41946;SDS011;27638;42.184;24.848;2023-09-12T11:09:16;2.63;;;2.20;;
41946;SDS011;27638;42.184;24.848;2023-09-12T11:11:45;4.53;;;2.42;;
41946;SDS011;27638;42.184;24.848;2023-09-12T11:14:12;4.70;;;2.47;;
41946;SDS011;27638;42.184;24.848;2023-09-12T11:16:37;4.68;;;2.28;;
41946;SDS011;27638;42.184;24.848;2023-09-12T11:19:24;2.60;;;2.20;;
41946;SDS011;27638;42.184;24.848;2023-09-12T11:21:51;4.97;;;2.42;;
41946;SDS011;27638;42.184;24.848;2023-09-12T11:24:18;4.45;;;2.28;;
41946;SDS011;27638;42.184;24.848;2023-09-12T11:29:30;3.58;;;2.00;;
41946;SDS011;27638;42.184;24.848;2023-09-12T11:32:01;3.97;;;2.00;;
41946;SDS011;27638;42.184;24.848;2023-09-12T11:34:31;5.03;;;2.40;;
41946;SDS011;27638;42.184;24.848;2023-09-12T11:37:10;6.22;;;2.42;;
41946;SDS011;27638;42.184;24.848;2023-09-12T11:39:47;4.93;;;2.20;;
41946;SDS011;27638;42.184;24.848;2023-09-12T11:42:14;7.47;;;2.10;;
41946;SDS011;27638;42.184;24.848;2023-09-12T11:44:39;4.22;;;2.50;;
41946;SDS011;27638;42.184;24.848;2023-09-12T11:47:06;5.22;;;2.80;;
41946;SDS011;27638;42.184;24.848;2023-09-12T11:49:36;4.30;;;2.85;;
41946;SDS011;27638;42.184;24.848;2023-09-12T11:52:02;3.97;;;2.03;;
41946;SDS011;27638;42.184;24.848;2023-09-12T11:54:29;5.28;;;2.65;;
41946;SDS011;27638;42.184;24.848;2023-09-12T11:56:57;3.85;;;2.78;;
41946;SDS011;27638;42.184;24.848;2023-09-12T11:59:24;7.80;;;3.00;;
41946;SDS011;27638;42.184;24.848;2023-09-12T12:01:56;5.32;;;2.70;;
41946;SDS011;27638;42.184;24.848;2023-09-12T12:04:22;3.83;;;2.70;;
41946;SDS011;27638;42.184;24.848;2023-09-12T12:06:50;4.53;;;2.55;;
41946;SDS011;27638;42.184;24.848;2023-09-12T12:09:17;3.75;;;2.50;;
41946;SDS011;27638;42.184;24.848;2023-09-12T12:11:45;4.03;;;2.30;;
41946;SDS011;27638;42.184;24.848;2023-09-12T12:16:38;3.40;;;2.70;;
41946;SDS011;27638;42.184;24.848;2023-09-12T12:19:04;4.45;;;2.90;;
41946;SDS011;27638;42.184;24.848;2023-09-12T12:21:29;7.60;;;3.10;;
41946;SDS011;27638;42.184;24.848;2023-09-12T12:24:02;3.78;;;2.50;;
41946;SDS011;27638;42.184;24.848;2023-09-12T12:26:29;3.72;;;2.53;;
41946;SDS011;27638;42.184;24.848;2023-09-12T12:28:55;6.00;;;2.70;;
41946;SDS011;27638;42.184;24.848;2023-09-12T12:31:21;6.45;;;2.80;;
41946;SDS011;27638;42.184;24.848;2023-09-12T12:33:49;4.72;;;3.58;;
41946;SDS011;27638;42.184;24.848;2023-09-12T12:36:17;3.67;;;2.78;;
41946;SDS011;27638;42.184;24.848;2023-09-12T12:38:43;5.88;;;3.20;;
41946;SDS011;27638;42.184;24.848;2023-09-12T12:41:11;7.05;;;2.78;;
41946;SDS011;27638;42.184;24.848;2023-09-12T12:43:41;6.45;;;2.85;;
41946;SDS011;27638;42.184;24.848;2023-09-12T12:46:11;7.50;;;2.92;;
41946;SDS011;27638;42.184;24.848;2023-09-12T12:48:37;2.88;;;2.60;;
41946;SDS011;27638;42.184;24.848;2023-09-12T12:54:07;3.80;;;2.92;;
41946;SDS011;27638;42.184;24.848;2023-09-12T12:56:33;5.63;;;2.83;;
41946;SDS011;27638;42.184;24.848;2023-09-12T12:58:59;4.75;;;2.88;;
41946;SDS011;27638;42.184;24.848;2023-09-12T13:01:28;3.88;;;2.63;;
41946;SDS011;27638;42.184;24.848;2023-09-12T13:03:54;6.43;;;3.03;;
41946;SDS011;27638;42.184;24.848;2023-09-12T13:06:22;5.55;;;3.15;;
41946;SDS011;27638;42.184;24.848;2023-09-12T13:08:48;4.55;;;2.85;;
41946;SDS011;27638;42.184;24.848;2023-09-12T13:11:14;5.68;;;3.05;;
41946;SDS011;27638;42.184;24.848;2023-09-12T13:13:41;4.40;;;3.08;;
41946;SDS011;27638;42.184;24.848;2023-09-12T13:16:08;4.20;;;2.63;;
41946;SDS011;27638;42.184;24.848;2023-09-12T13:18:38;6.03;;;2.92;;
41946;SDS011;27638;42.184;24.848;2023-09-12T13:21:04;12.88;;;4.38;;
41946;SDS011;27638;42.184;24.848;2023-09-12T13:23:30;5.35;;;2.78;;
41946;SDS011;27638;42.184;24.848;2023-09-12T13:25:58;4.65;;;2.80;;
41946;SDS011;27638;42.184;24.848;2023-09-12T13:28:23;4.20;;;2.60;;
41946;SDS011;27638;42.184;24.848;2023-09-12T13:30:52;4.65;;;2.80;;
41946;SDS011;27638;42.184;24.848;2023-09-12T13:33:18;8.98;;;3.00;;
41946;SDS011;27638;42.184;24.848;2023-09-12T13:35:43;3.95;;;2.63;;
41946;SDS011;27638;42.184;24.848;2023-09-12T13:38:09;3.35;;;2.53;;
41946;SDS011;27638;42.184;24.848;2023-09-12T13:40:38;10.30;;;3.35;;
41946;SDS011;27638;42.184;24.848;2023-09-12T13:43:04;5.47;;;2.45;;
41946;SDS011;27638;42.184;24.848;2023-09-12T13:45:30;4.38;;;2.67;;
41946;SDS011;27638;42.184;24.848;2023-09-12T13:47:56;5.22;;;2.70;;
41946;SDS011;27638;42.184;24.848;2023-09-12T13:50:25;2.83;;;2.40;;
41946;SDS011;27638;42.184;24.848;2023-09-12T13:52:54;5.85;;;2.72;;
41946;SDS011;27638;42.184;24.848;2023-09-12T13:55:35;3.42;;;2.90;;
41946;SDS011;27638;42.184;24.848;2023-09-12T13:58:02;5.85;;;3.03;;
41946;SDS011;27638;42.184;24.848;2023-09-12T14:00:28;3.78;;;2.67;;
41946;SDS011;27638;42.184;24.848;2023-09-12T14:02:54;3.78;;;2.47;;
41946;SDS011;27638;42.184;24.848;2023-09-12T14:05:20;3.97;;;2.92;;
41946;SDS011;27638;42.184;24.848;2023-09-12T14:07:46;5.07;;;3.17;;
41946;SDS011;27638;42.184;24.848;2023-09-12T14:10:11;5.35;;;2.80;;
41946;SDS011;27638;42.184;24.848;2023-09-12T14:12:38;4.15;;;2.60;;
41946;SDS011;27638;42.184;24.848;2023-09-12T14:15:04;3.08;;;2.78;;
41946;SDS011;27638;42.184;24.848;2023-09-12T14:17:31;5.95;;;2.60;;
41946;SDS011;27638;42.184;24.848;2023-09-12T14:19:57;3.13;;;2.70;;
41946;SDS011;27638;42.184;24.848;2023-09-12T14:22:23;4.28;;;2.78;;
41946;SDS011;27638;42.184;24.848;2023-09-12T14:24:48;5.38;;;2.97;;
41946;SDS011;27638;42.184;24.848;2023-09-12T14:27:13;4.00;;;2.58;;
41946;SDS011;27638;42.184;24.848;2023-09-12T14:29:39;4.63;;;2.50;;
41946;SDS011;27638;42.184;24.848;2023-09-12T14:32:04;15.65;;;2.95;;
41946;SDS011;27638;42.184;24.848;2023-09-12T14:34:30;5.07;;;2.47;;
41946;SDS011;27638;42.184;24.848;2023-09-12T14:36:58;2.92;;;2.63;;
41946;SDS011;27638;42.184;24.848;2023-09-12T14:39:24;4.70;;;2.83;;
41946;SDS011;27638;42.184;24.848;2023-09-12T14:41:50;3.38;;;2.38;;
41946;SDS011;27638;42.184;24.848;2023-09-12T14:44:20;3.95;;;2.90;;
41946;SDS011;27638;42.184;24.848;2023-09-12T14:46:46;5.80;;;2.60;;